Time;durP1;ratioP1;P1;durP2;ratioP2;P2;SDS_P1;SDS_P2;PMS_P1;PMS_P2;Temp;Humidity;BMP_temperature;BMP_pressure;BME280_temperature;BME280_humidity;BME280_pressure;Samples;Min_cycle;Max_cycle;Signal;HPM_P1;HPM_P2
2021/09/05 00:00:25;;;;;;;;;;;;;;;17.01;100.00;99353.22;5067767;28;20284;-62
2021/09/05 00:02:51;;;;;;;;;;;;;;;16.67;100.00;99353.22;5081615;28;19930;-59
2021/09/05 00:05:17;;;;;;;;;;;;;;;16.81;100.00;99343.84;5068130;28;19915;-62
2021/09/05 00:07:42;;;;;;;;;;;;;;;16.66;100.00;99351.50;5086379;28;19919;-62
2021/09/05 00:10:08;;;;;;;;;;;;;;;17.00;100.00;99346.34;5066943;28;19912;-63
2021/09/05 00:12:33;;;;;;;;;;;;;;;16.49;100.00;99344.59;5100795;28;19912;-63
2021/09/05 00:14:58;;;;;;;;;;;;;;;16.80;100.00;99352.59;5079771;28;20018;-63
2021/09/05 00:17:24;;;;;;;;;;;;;;;16.52;100.00;99343.59;5082791;28;19919;-61
2021/09/05 00:19:49;;;;;;;;;;;;;;;16.16;100.00;99336.72;5101592;28;20379;-60
2021/09/05 00:22:15;;;;;;;;;;;;;;;15.92;100.00;99343.09;5102184;28;19915;-62
2021/09/05 00:24:40;;;;;;;;;;;;;;;16.26;100.00;99343.16;5073280;28;20282;-62
2021/09/05 00:27:05;;;;;;;;;;;;;;;16.48;100.00;99336.84;5101003;28;19995;-62
2021/09/05 00:29:31;;;;;;;;;;;;;;;16.49;100.00;99338.56;5083182;28;20002;-61
2021/09/05 00:31:56;;;;;;;;;;;;;;;16.55;100.00;99337.38;5065493;28;20610;-60
2021/09/05 00:34:22;;;;;;;;;;;;;;;16.70;100.00;99340.03;5083558;28;19938;-59
2021/09/05 00:36:47;;;;;;;;;;;;;;;16.46;100.00;99339.53;5084467;28;19919;-63
2021/09/05 00:39:13;;;;;;;;;;;;;;;16.24;100.00;99342.38;5072895;28;19992;-63
2021/09/05 00:41:38;;;;;;;;;;;;;;;16.29;100.00;99344.75;5083370;28;19920;-63
2021/09/05 00:44:04;;;;;;;;;;;;;;;16.61;100.00;99342.28;5084302;28;19915;-62
2021/09/05 00:46:30;;;;;;;;;;;;;;;16.48;100.00;99348.09;5072387;28;19919;-62
2021/09/05 00:48:56;;;;;;;;;;;;;;;16.29;100.00;99344.75;5067679;28;19968;-62
2021/09/05 00:51:22;;;;;;;;;;;;;;;16.29;100.00;99353.38;5084338;28;19964;-61
2021/09/05 00:53:48;;;;;;;;;;;;;;;16.10;100.00;99352.59;5083733;28;19916;-59
2021/09/05 00:56:13;;;;;;;;;;;;;;;16.18;100.00;99355.66;5075594;28;19938;-60
2021/09/05 00:58:41;;;;;;;;;;;;;;;16.35;100.00;99357.41;5068394;28;20018;-59
2021/09/05 01:01:06;;;;;;;;;;;;;;;16.42;100.00;99364.00;5062606;28;19923;-60
2021/09/05 01:03:32;;;;;;;;;;;;;;;16.32;100.00;99352.38;5065500;28;19923;-60
2021/09/05 01:05:57;;;;;;;;;;;;;;;16.45;100.00;99358.66;5097436;28;19949;-59
2021/09/05 01:08:22;;;;;;;;;;;;;;;16.03;100.00;99353.81;5066441;28;20014;-61
2021/09/05 01:10:48;;;;;;;;;;;;;;;15.71;100.00;99351.00;5099653;28;19968;-60
2021/09/05 01:13:13;;;;;;;;;;;;;;;15.55;100.00;99350.03;5065056;28;20385;-61
2021/09/05 01:15:38;;;;;;;;;;;;;;;15.63;100.00;99353.09;5076975;28;19924;-60
2021/09/05 01:18:04;;;;;;;;;;;;;;;15.56;100.00;99346.53;5096149;28;19916;-63
2021/09/05 01:20:29;;;;;;;;;;;;;;;15.48;100.00;99350.28;5075534;28;19932;-63
2021/09/05 01:22:55;;;;;;;;;;;;;;;15.70;100.00;99349.31;5076371;28;20572;-63
2021/09/05 01:25:20;;;;;;;;;;;;;;;15.82;100.00;99343.53;5079027;28;19915;-62
2021/09/05 01:27:45;;;;;;;;;;;;;;;16.02;100.00;99341.75;5063784;28;20973;-62
2021/09/05 01:30:11;;;;;;;;;;;;;;;16.02;100.00;99347.78;5083513;28;19920;-60
2021/09/05 01:32:36;;;;;;;;;;;;;;;16.05;100.00;99349.38;5098311;28;19923;-60
2021/09/05 01:35:03;;;;;;;;;;;;;;;15.80;100.00;99349.72;5066485;28;19915;-60
2021/09/05 01:37:29;;;;;;;;;;;;;;;15.13;100.00;99344.13;5083391;28;20356;-60
2021/09/05 01:39:55;;;;;;;;;;;;;;;15.41;100.00;99342.88;5081800;28;19919;-59
2021/09/05 01:42:20;;;;;;;;;;;;;;;15.75;100.00;99349.94;5081105;28;19923;-60
2021/09/05 01:44:45;;;;;;;;;;;;;;;15.84;100.00;99346.06;5081792;28;19973;-63
2021/09/05 01:47:11;;;;;;;;;;;;;;;15.35;100.00;99354.41;5079621;28;19924;-63
2021/09/05 01:49:36;;;;;;;;;;;;;;;15.71;100.00;99351.00;5078703;28;20014;-63
2021/09/05 01:52:01;;;;;;;;;;;;;;;15.72;100.00;99347.50;5062184;28;19972;-63
2021/09/05 01:54:27;;;;;;;;;;;;;;;15.02;100.00;99347.22;5083516;28;20044;-62
2021/09/05 01:56:52;;;;;;;;;;;;;;;15.35;100.00;99351.81;5098332;28;19915;-63
2021/09/05 01:59:17;;;;;;;;;;;;;;;15.46;100.00;99346.09;5066822;28;20057;-62
2021/09/05 02:01:43;;;;;;;;;;;;;;;15.15;100.00;99347.50;5080489;28;19935;-60
2021/09/05 02:04:08;;;;;;;;;;;;;;;14.99;100.00;99349.94;5079447;28;19911;-63
2021/09/05 02:06:33;;;;;;;;;;;;;;;15.06;100.00;99351.34;5085528;28;19911;-60
2021/09/05 02:08:59;;;;;;;;;;;;;;;15.14;100.00;99350.16;5101368;28;19920;-62
2021/09/05 02:11:24;;;;;;;;;;;;;;;15.48;100.00;99354.66;5079032;28;19924;-63
2021/09/05 02:13:50;;;;;;;;;;;;;;;15.31;100.00;99358.03;5099131;28;19919;-63
2021/09/05 02:16:15;;;;;;;;;;;;;;;14.68;100.00;99365.16;5080474;28;19919;-63
2021/09/05 02:18:41;;;;;;;;;;;;;;;15.02;100.00;99362.78;5080532;28;20019;-60
2021/09/05 02:21:06;;;;;;;;;;;;;;;14.87;100.00;99360.00;5080856;28;19998;-62
2021/09/05 02:23:31;;;;;;;;;;;;;;;14.45;100.00;99374.72;5100897;28;19912;-63
2021/09/05 02:25:57;;;;;;;;;;;;;;;14.25;100.00;99372.94;5085431;28;20372;-62
2021/09/05 02:28:22;;;;;;;;;;;;;;;14.95;100.00;99370.91;5078234;28;20623;-60
2021/09/05 02:30:47;;;;;;;;;;;;;;;15.24;100.00;99372.19;5099794;28;19927;-60
2021/09/05 02:33:12;;;;;;;;;;;;;;;15.14;100.00;99371.75;5098857;28;19942;-62
2021/09/05 02:35:38;;;;;;;;;;;;;;;14.97;100.00;99369.91;5077923;28;19920;-59
2021/09/05 02:38:03;;;;;;;;;;;;;;;14.85;100.00;99365.28;5080997;28;20792;-62
2021/09/05 02:40:29;;;;;;;;;;;;;;;15.00;100.00;99374.97;5098360;28;20007;-61
2021/09/05 02:42:54;;;;;;;;;;;;;;;14.79;100.00;99370.72;5099760;28;19924;-60
2021/09/05 02:45:19;;;;;;;;;;;;;;;14.88;100.00;99369.50;5081706;28;19919;-63
2021/09/05 02:47:45;;;;;;;;;;;;;;;14.90;100.00;99367.69;5079287;28;20373;-60
2021/09/05 02:50:10;;;;;;;;;;;;;;;14.79;100.00;99373.31;5080488;28;20019;-60
2021/09/05 02:52:35;;;;;;;;;;;;;;;14.71;100.00;99375.38;5100638;28;19912;-62
2021/09/05 02:55:01;;;;;;;;;;;;;;;14.70;100.00;99365.94;5098434;28;19923;-63
2021/09/05 02:57:26;;;;;;;;;;;;;;;14.84;100.00;99368.78;5098805;28;19961;-63
2021/09/05 02:59:51;;;;;;;;;;;;;;;15.12;100.00;99370.13;5064773;28;19977;-62
2021/09/05 03:02:17;;;;;;;;;;;;;;;14.81;100.00;99363.72;5098138;28;19920;-62
2021/09/05 03:04:42;;;;;;;;;;;;;;;14.60;100.00;99366.34;5077989;28;19920;-63
2021/09/05 03:07:08;;;;;;;;;;;;;;;14.50;100.00;99359.81;5078822;28;19967;-63
2021/09/05 03:09:33;;;;;;;;;;;;;;;14.45;100.00;99361.75;5062408;28;21215;-61
2021/09/05 03:11:58;;;;;;;;;;;;;;;14.60;100.00;99368.94;5063254;28;19930;-62
2021/09/05 03:14:24;;;;;;;;;;;;;;;14.74;100.00;99370.09;5080012;28;20006;-62
2021/09/05 03:16:49;;;;;;;;;;;;;;;14.92;100.00;99369.28;5099005;28;19942;-62
2021/09/05 03:19:14;;;;;;;;;;;;;;;14.60;100.00;99360.31;5097980;28;20392;-61
2021/09/05 03:21:40;;;;;;;;;;;;;;;14.48;100.00;99361.63;5083573;28;19919;-62
2021/09/05 03:24:06;;;;;;;;;;;;;;;14.59;100.00;99359.44;5068401;28;19920;-60
2021/09/05 03:26:32;;;;;;;;;;;;;;;14.54;100.00;99366.59;5070732;28;19920;-62
2021/09/05 03:28:57;;;;;;;;;;;;;;;14.23;100.00;99362.66;5084669;28;19945;-60
2021/09/05 03:31:22;;;;;;;;;;;;;;;14.34;100.00;99369.13;5082165;28;20007;-62
2021/09/05 03:33:48;;;;;;;;;;;;;;;14.22;100.00;99363.56;5083269;28;20555;-61
2021/09/05 03:36:13;;;;;;;;;;;;;;;14.28;100.00;99357.28;5104357;28;19954;-63
2021/09/05 03:38:38;;;;;;;;;;;;;;;14.27;100.00;99367.72;5084032;28;20302;-62
2021/09/05 03:41:04;;;;;;;;;;;;;;;14.01;100.00;99361.84;5102343;28;19942;-59
2021/09/05 03:43:29;;;;;;;;;;;;;;;14.15;100.00;99367.31;5067731;28;19965;-59
2021/09/05 03:45:54;;;;;;;;;;;;;;;14.25;100.00;99364.34;5086607;28;19968;-62
2021/09/05 03:48:19;;;;;;;;;;;;;;;14.33;100.00;99359.69;5083047;28;19919;-62
2021/09/05 03:50:45;;;;;;;;;;;;;;;14.21;100.00;99361.06;5083780;28;19924;-63
2021/09/05 03:53:10;;;;;;;;;;;;;;;14.08;100.00;99363.28;5084600;28;19915;-60
2021/09/05 03:55:36;;;;;;;;;;;;;;;14.32;100.00;99360.59;5070221;28;19920;-59
2021/09/05 03:58:02;;;;;;;;;;;;;;;14.32;100.00;99365.75;5101868;28;19926;-62
2021/09/05 04:00:28;;;;;;;;;;;;;;;14.43;100.00;99363.56;5084099;28;19916;-63
2021/09/05 04:02:53;;;;;;;;;;;;;;;14.17;100.00;99360.31;5066218;28;20262;-62
2021/09/05 04:05:19;;;;;;;;;;;;;;;14.46;100.00;99360.88;5100272;28;20440;-62
2021/09/05 04:08:00;;;;;;;;;;;;;;;14.53;100.00;99354.53;5067500;28;19924;-62
2021/09/05 04:10:26;;;;;;;;;;;;;;;13.84;100.00;99369.44;5106528;28;19916;-61
2021/09/05 04:12:51;;;;;;;;;;;;;;;14.24;100.00;99366.09;5075694;28;20281;-61
2021/09/05 04:15:16;;;;;;;;;;;;;;;14.12;100.00;99367.44;5081798;28;20296;-62
2021/09/05 04:17:42;;;;;;;;;;;;;;;14.29;100.00;99360.72;5074376;28;19937;-62
2021/09/05 04:20:07;;;;;;;;;;;;;;;14.13;100.00;99357.91;5081479;28;20006;-61
2021/09/05 04:22:32;;;;;;;;;;;;;;;14.35;100.00;99365.66;5069030;28;19926;-60
2021/09/05 04:24:58;;;;;;;;;;;;;;;14.25;100.00;99354.81;5102323;28;19920;-63
2021/09/05 04:27:27;;;;;;;;;;;;;;;14.06;100.00;99354.72;5104636;28;19923;-61
2021/09/05 04:29:53;;;;;;;;;;;;;;;14.16;100.00;99350.88;5094395;28;19998;-63
2021/09/05 04:32:20;;;;;;;;;;;;;;;14.44;100.00;99360.09;5078861;28;20035;-63
2021/09/05 04:34:46;;;;;;;;;;;;;;;14.53;100.00;99364.88;5079124;28;20004;-59
2021/09/05 04:37:11;;;;;;;;;;;;;;;14.49;100.00;99365.91;5079420;28;20390;-60
2021/09/05 04:39:36;;;;;;;;;;;;;;;14.37;100.00;99369.88;5078084;28;19920;-60
2021/09/05 04:42:02;;;;;;;;;;;;;;;14.09;100.00;99367.53;5080896;28;19919;-59
2021/09/05 04:44:27;;;;;;;;;;;;;;;14.27;100.00;99372.91;5081855;28;19969;-59
2021/09/05 04:46:52;;;;;;;;;;;;;;;14.43;100.00;99372.19;5078527;28;20378;-59
2021/09/05 04:49:18;;;;;;;;;;;;;;;14.44;100.00;99383.41;5081504;28;19927;-62
2021/09/05 04:51:43;;;;;;;;;;;;;;;14.21;100.00;99384.38;5079753;28;20010;-61
2021/09/05 04:54:08;;;;;;;;;;;;;;;14.00;100.00;99396.41;5079628;28;19916;-63
2021/09/05 04:56:34;;;;;;;;;;;;;;;13.81;100.00;99397.13;5079317;28;20421;-60
2021/09/05 04:58:59;;;;;;;;;;;;;;;13.96;100.00;99400.03;5077035;28;19923;-60
2021/09/05 05:01:25;;;;;;;;;;;;;;;14.06;100.00;99406.53;5080494;28;19923;-62
2021/09/05 05:03:50;;;;;;;;;;;;;;;14.04;100.00;99408.34;5062405;28;19920;-62
2021/09/05 05:06:15;;;;;;;;;;;;;;;14.10;100.00;99397.75;5081950;28;19924;-63
2021/09/05 05:08:41;;;;;;;;;;;;;;;14.14;100.00;99407.06;5078008;28;19924;-59
2021/09/05 05:11:06;;;;;;;;;;;;;;;14.14;100.00;99399.31;5078317;28;20266;-62
2021/09/05 05:13:31;;;;;;;;;;;;;;;13.86;100.00;99401.28;5079437;28;19919;-62
2021/09/05 05:15:57;;;;;;;;;;;;;;;13.78;100.00;99407.63;5079130;28;19919;-62
2021/09/05 05:18:22;;;;;;;;;;;;;;;13.74;100.00;99405.19;5079777;28;19920;-60
2021/09/05 05:20:48;;;;;;;;;;;;;;;14.01;100.00;99411.06;5078268;28;19978;-62
2021/09/05 05:23:13;;;;;;;;;;;;;;;14.04;100.00;99410.91;5080135;28;19916;-62
2021/09/05 05:25:38;;;;;;;;;;;;;;;14.03;100.00;99411.84;5077536;28;19920;-60
2021/09/05 05:28:04;;;;;;;;;;;;;;;14.26;100.00;99420.44;5078102;28;19974;-59
2021/09/05 05:30:29;;;;;;;;;;;;;;;14.46;100.00;99420.47;5078293;28;19916;-61
2021/09/05 05:32:56;;;;;;;;;;;;;;;14.19;100.00;99418.09;5060632;28;20472;-62
2021/09/05 05:35:21;;;;;;;;;;;;;;;14.03;100.00;99424.78;5080009;28;19927;-61
2021/09/05 05:37:46;;;;;;;;;;;;;;;14.09;100.00;99426.28;5079425;28;20002;-62
2021/09/05 05:40:12;;;;;;;;;;;;;;;14.40;100.00;99428.50;5079729;28;19967;-60
2021/09/05 05:42:37;;;;;;;;;;;;;;;14.68;100.00;99424.78;5080485;28;19995;-62
2021/09/05 05:45:02;;;;;;;;;;;;;;;14.75;100.00;99431.38;5079228;28;19920;-63
2021/09/05 05:47:28;;;;;;;;;;;;;;;14.74;100.00;99427.13;5081438;28;19916;-62
2021/09/05 05:49:54;;;;;;;;;;;;;;;14.71;100.00;99420.31;5080735;28;19920;-62
2021/09/05 05:52:19;;;;;;;;;;;;;;;14.75;100.00;99431.38;5080332;28;20311;-61
2021/09/05 05:54:44;;;;;;;;;;;;;;;14.38;100.00;99436.31;5080269;28;19931;-63
2021/09/05 05:57:10;;;;;;;;;;;;;;;13.93;100.00;99436.41;5077220;28;19935;-63
2021/09/05 05:59:35;;;;;;;;;;;;;;;14.06;100.00;99441.94;5060405;28;20288;-60
2021/09/05 06:02:01;;;;;;;;;;;;;;;14.50;100.00;99432.38;5076766;28;19995;-60
2021/09/05 06:04:26;;;;;;;;;;;;;;;14.25;100.00;99426.50;5080214;28;20023;-59
2021/09/05 06:06:55;;;;;;;;;;;;;;;14.42;100.00;99431.88;5075026;28;20007;-63
2021/09/05 06:09:20;;;;;;;;;;;;;;;15.02;100.00;99425.03;5066568;28;19998;-63
2021/09/05 06:11:48;;;;;;;;;;;;;;;15.24;100.00;99430.13;5066229;28;19927;-62
2021/09/05 06:14:13;;;;;;;;;;;;;;;15.02;100.00;99430.22;5081637;28;19974;-62
2021/09/05 06:17:04;;;;;;;;;;;;;;;15.13;100.00;99429.75;5084273;28;19959;-61
2021/09/05 06:19:37;;;;;;;;;;;;;;;15.54;100.00;99426.22;5076161;28;19927;-59
2021/09/05 06:22:05;;;;;;;;;;;;;;;15.58;100.00;99432.97;5061347;28;20633;-59
2021/09/05 06:24:31;;;;;;;;;;;;;;;15.86;100.00;99433.38;5079717;28;19970;-63
2021/09/05 06:27:05;;;;;;;;;;;;;;;16.03;100.00;99431.75;5063642;28;19912;-61
2021/09/05 06:29:33;;;;;;;;;;;;;;;16.02;100.00;99438.72;5087318;28;19934;-60
2021/09/05 06:31:58;;;;;;;;;;;;;;;15.82;100.00;99437.03;5061808;28;19994;-63
2021/09/05 06:34:23;;;;;;;;;;;;;;;15.62;100.00;99437.94;5079508;28;20877;-62
2021/09/05 06:37:04;;;;;;;;;;;;;;;15.64;100.00;99437.84;5078792;28;19963;-62
2021/09/05 06:39:40;;;;;;;;;;;;;;;15.57;100.00;99442.47;5078164;28;19924;-62
2021/09/05 06:42:11;;;;;;;;;;;;;;;16.76;100.00;99439.47;5078330;28;20386;-63
2021/09/05 06:44:38;;;;;;;;;;;;;;;16.81;100.00;99440.09;5074136;28;19920;-63
2021/09/05 06:47:04;;;;;;;;;;;;;;;16.97;100.00;99440.16;5061329;28;19926;-63
2021/09/05 06:49:29;;;;;;;;;;;;;;;17.29;100.00;99444.56;5074445;28;20301;-63
2021/09/05 06:51:54;;;;;;;;;;;;;;;16.92;100.00;99440.41;5054853;28;20381;-64
2021/09/05 06:54:20;;;;;;;;;;;;;;;17.53;100.00;99450.22;5064342;28;19909;-63
2021/09/05 06:56:45;;;;;;;;;;;;;;;17.96;100.00;99444.47;5074667;28;19920;-63
2021/09/05 06:59:11;;;;;;;;;;;;;;;17.48;100.00;99439.19;5081885;28;19917;-62
2021/09/05 07:01:36;;;;;;;;;;;;;;;17.95;100.00;99443.63;5070117;28;20440;-62
2021/09/05 07:04:01;;;;;;;;;;;;;;;17.39;100.00;99444.91;5070807;28;19928;-62
2021/09/05 07:06:27;;;;;;;;;;;;;;;17.84;100.00;99440.78;5081853;28;19917;-62
2021/09/05 07:08:52;;;;;;;;;;;;;;;18.00;100.00;99445.16;5085501;28;19990;-61
2021/09/05 07:11:18;;;;;;;;;;;;;;;18.28;100.00;99445.28;5079276;28;19919;-61
2021/09/05 07:13:43;;;;;;;;;;;;;;;18.46;100.00;99442.56;5083786;28;19913;-62
2021/09/05 07:16:09;;;;;;;;;;;;;;;18.55;100.00;99453.28;5066724;28;19920;-62
2021/09/05 07:18:34;;;;;;;;;;;;;;;18.35;100.00;99451.81;5083214;28;20004;-62
2021/09/05 07:21:00;;;;;;;;;;;;;;;18.83;100.00;99450.88;5070737;28;19913;-62
2021/09/05 07:23:28;;;;;;;;;;;;;;;19.13;100.00;99458.66;5067726;28;19931;-61
2021/09/05 07:25:54;;;;;;;;;;;;;;;19.31;100.00;99456.69;5079879;28;19913;-63
2021/09/05 07:28:19;;;;;;;;;;;;;;;19.61;100.00;99453.97;5079235;28;19924;-63
2021/09/05 07:30:44;;;;;;;;;;;;;;;19.18;100.00;99461.81;5079889;28;19917;-62
2021/09/05 07:33:10;;;;;;;;;;;;;;;19.39;100.00;99465.75;5079956;28;20409;-62
2021/09/05 07:35:35;;;;;;;;;;;;;;;19.76;100.00;99462.66;5080218;28;20013;-62
2021/09/05 07:38:00;;;;;;;;;;;;;;;19.83;100.00;99470.03;5084108;28;20000;-61
2021/09/05 07:40:26;;;;;;;;;;;;;;;20.03;100.00;99466.16;5081694;28;20003;-60
2021/09/05 07:42:51;;;;;;;;;;;;;;;20.15;100.00;99471.53;5078011;28;20293;-61
2021/09/05 07:45:16;;;;;;;;;;;;;;;20.09;100.00;99474.53;5074569;28;19916;-63
2021/09/05 07:47:42;;;;;;;;;;;;;;;19.96;100.00;99472.72;5077598;28;19920;-61
2021/09/05 07:50:08;;;;;;;;;;;;;;;20.51;100.00;99477.94;5076615;28;19916;-60
2021/09/05 07:52:33;;;;;;;;;;;;;;;20.48;100.00;99474.59;5077531;28;19924;-63
2021/09/05 07:54:58;;;;;;;;;;;;;;;20.78;100.00;99478.78;5077287;28;19915;-63
2021/09/05 07:57:24;;;;;;;;;;;;;;;20.21;100.00;99474.59;5076650;28;20908;-63
2021/09/05 07:59:49;;;;;;;;;;;;;;;19.40;100.00;99474.41;5080290;28;19962;-63
2021/09/05 08:02:14;;;;;;;;;;;;;;;19.29;100.00;99482.91;5078842;28;20007;-65
2021/09/05 08:04:40;;;;;;;;;;;;;;;19.46;100.00;99487.13;5080031;28;19977;-62
2021/09/05 08:07:05;;;;;;;;;;;;;;;18.65;100.00;99495.31;5062973;28;19923;-62
2021/09/05 08:09:30;;;;;;;;;;;;;;;19.90;100.00;99486.16;5080011;28;19959;-61
2021/09/05 08:11:56;;;;;;;;;;;;;;;19.91;100.00;99487.00;5079649;28;20014;-62
2021/09/05 08:14:21;;;;;;;;;;;;;;;19.86;100.00;99489.91;5078623;28;19919;-62
2021/09/05 08:16:47;;;;;;;;;;;;;;;20.34;100.00;99492.94;5075678;28;19913;-62
2021/09/05 08:19:12;;;;;;;;;;;;;;;20.70;100.00;99496.75;5076249;28;19920;-62
2021/09/05 08:21:37;;;;;;;;;;;;;;;20.36;100.00;99498.91;5081394;28;19958;-61
2021/09/05 08:24:05;;;;;;;;;;;;;;;20.15;100.00;99500.31;5081222;28;19916;-62
2021/09/05 08:26:30;;;;;;;;;;;;;;;20.51;100.00;99502.34;5080975;28;19946;-62
2021/09/05 08:28:56;;;;;;;;;;;;;;;20.11;100.00;99504.03;5079179;28;20374;-63
2021/09/05 08:31:21;;;;;;;;;;;;;;;21.23;100.00;99504.56;5079445;28;19919;-62
2021/09/05 08:33:46;;;;;;;;;;;;;;;21.68;100.00;99508.44;5099949;28;19916;-62
2021/09/05 08:36:12;;;;;;;;;;;;;;;21.49;100.00;99511.53;5103859;28;19916;-62
2021/09/05 08:38:37;;;;;;;;;;;;;;;22.54;100.00;99507.56;5101475;28;19919;-62
2021/09/05 08:41:03;;;;;;;;;;;;;;;22.22;100.00;99509.09;5081998;28;20301;-62
2021/09/05 08:43:28;;;;;;;;;;;;;;;22.81;100.00;99509.13;5068152;28;19970;-62
2021/09/05 08:45:54;;;;;;;;;;;;;;;22.38;100.00;99514.91;5083327;28;20502;-62
2021/09/05 08:48:19;;;;;;;;;;;;;;;22.13;100.00;99516.63;5084578;28;20389;-62
2021/09/05 08:50:45;;;;;;;;;;;;;;;21.78;100.00;99524.41;5101485;28;19920;-61
2021/09/05 08:53:11;;;;;;;;;;;;;;;21.34;100.00;99516.94;5101546;28;19919;-62
2021/09/05 08:55:36;;;;;;;;;;;;;;;22.30;100.00;99527.72;5083027;28;19958;-64
2021/09/05 08:58:01;;;;;;;;;;;;;;;22.98;100.00;99519.19;5064893;28;19919;-61
2021/09/05 09:00:27;;;;;;;;;;;;;;;22.27;100.00;99522.72;5067390;28;19919;-62
2021/09/05 09:03:00;;;;;;;;;;;;;;;22.61;100.00;99523.72;5080727;28;19916;-62
2021/09/05 09:05:41;;;;;;;;;;;;;;;22.01;100.00;99527.16;5084271;28;19923;-62
2021/09/05 09:08:08;;;;;;;;;;;;;;;21.53;100.00;99527.88;5065963;28;20498;-62
2021/09/05 09:10:45;;;;;;;;;;;;;;;22.17;100.00;99530.38;5102045;28;19922;-62
2021/09/05 09:13:21;;;;;;;;;;;;;;;23.83;100.00;99520.63;5099850;28;20303;-62
2021/09/05 09:15:46;;;;;;;;;;;;;;;23.52;100.00;99527.44;5082823;28;19916;-60
2021/09/05 09:18:11;;;;;;;;;;;;;;;21.62;100.00;99532.50;5080361;28;19911;-60
2021/09/05 09:20:41;;;;;;;;;;;;;;;22.84;100.00;99534.31;5061540;28;19924;-62
2021/09/05 09:23:19;;;;;;;;;;;;;;;22.21;100.00;99538.84;5064740;28;19916;-63
2021/09/05 09:26:05;;;;;;;;;;;;;;;21.80;100.00;99535.59;5062939;28;19927;-62
2021/09/05 09:28:34;;;;;;;;;;;;;;;22.54;100.00;99539.06;5088749;28;19920;-62
2021/09/05 09:31:00;;;;;;;;;;;;;;;22.40;100.00;99535.75;5064635;28;20278;-62
2021/09/05 09:33:27;;;;;;;;;;;;;;;23.44;100.00;99535.88;5100936;28;19928;-62
2021/09/05 09:35:53;;;;;;;;;;;;;;;23.59;100.00;99534.72;5081512;28;19916;-63
2021/09/05 09:38:19;;;;;;;;;;;;;;;23.09;100.00;99544.69;5066936;28;19926;-62
2021/09/05 09:40:46;;;;;;;;;;;;;;;23.45;100.00;99536.75;5066266;28;19939;-62
2021/09/05 09:43:18;;;;;;;;;;;;;;;23.88;100.00;99538.69;5101567;28;19919;-62
2021/09/05 09:45:44;;;;;;;;;;;;;;;24.16;100.00;99543.44;5066428;28;20007;-62
2021/09/05 09:48:09;;;;;;;;;;;;;;;24.58;100.00;99538.31;5082890;28;19955;-62
2021/09/05 09:50:40;;;;;;;;;;;;;;;23.70;100.00;99543.56;5071890;28;20400;-62
2021/09/05 09:53:06;;;;;;;;;;;;;;;23.36;100.00;99544.38;5099801;27;20404;-62
2021/09/05 09:55:31;;;;;;;;;;;;;;;22.96;100.00;99551.75;5083779;28;19995;-62
2021/09/05 09:57:56;;;;;;;;;;;;;;;23.24;100.00;99547.09;5060902;28;19926;-62
2021/09/05 10:00:22;;;;;;;;;;;;;;;23.48;100.00;99547.03;5066719;28;20288;-60
2021/09/05 10:02:47;;;;;;;;;;;;;;;23.42;100.00;99547.47;5082398;28;20905;-62
2021/09/05 10:05:13;;;;;;;;;;;;;;;24.00;100.00;99554.34;5080780;28;21039;-63
2021/09/05 10:07:38;;;;;;;;;;;;;;;24.49;100.00;99546.97;5102889;28;20693;-62
2021/09/05 10:10:05;;;;;;;;;;;;;;;26.06;100.00;99554.91;5086865;28;19955;-62
2021/09/05 10:12:30;;;;;;;;;;;;;;;25.74;100.00;99547.97;5083495;28;19930;-62
2021/09/05 10:14:55;;;;;;;;;;;;;;;26.79;100.00;99558.09;5101412;28;20363;-63
2021/09/05 10:17:21;;;;;;;;;;;;;;;27.07;100.00;99550.28;5081302;28;19930;-61
2021/09/05 10:19:47;;;;;;;;;;;;;;;25.05;100.00;99551.16;5101335;28;19915;-63
2021/09/05 10:22:13;;;;;;;;;;;;;;;24.72;100.00;99542.44;5100476;28;19920;-61
2021/09/05 10:24:42;;;;;;;;;;;;;;;23.75;100.00;99544.91;5083518;28;19920;-61
2021/09/05 10:27:07;;;;;;;;;;;;;;;24.58;100.00;99540.94;5103318;28;19969;-62
2021/09/05 10:29:33;;;;;;;;;;;;;;;26.46;100.00;99544.28;5080816;28;19920;-62
2021/09/05 10:31:58;;;;;;;;;;;;;;;25.91;100.00;99543.91;5099498;28;20242;-60
2021/09/05 10:34:31;;;;;;;;;;;;;;;24.05;100.00;99547.88;5082202;28;19916;-63
2021/09/05 10:37:03;;;;;;;;;;;;;;;25.54;100.00;99548.84;5098176;28;20362;-63
2021/09/05 10:39:29;;;;;;;;;;;;;;;24.65;100.00;99548.34;5100535;28;19920;-62
2021/09/05 10:41:54;;;;;;;;;;;;;;;25.60;100.00;99541.25;5079753;28;19916;-61
2021/09/05 10:44:20;;;;;;;;;;;;;;;26.12;100.00;99532.44;5083665;28;19916;-62
2021/09/05 10:46:46;;;;;;;;;;;;;;;25.64;100.00;99536.53;5098668;28;19923;-62
2021/09/05 10:49:12;;;;;;;;;;;;;;;25.32;100.00;99545.41;5100264;28;20038;-61
2021/09/05 10:51:39;;;;;;;;;;;;;;;27.22;100.00;99535.66;5063671;28;20018;-61
2021/09/05 10:54:11;;;;;;;;;;;;;;;26.95;100.00;99539.03;5080462;28;19919;-60
2021/09/05 10:56:44;;;;;;;;;;;;;;;25.88;100.00;99534.44;5078508;28;19981;-61
2021/09/05 10:59:14;;;;;;;;;;;;;;;25.21;100.00;99537.56;5100147;28;20335;-60
2021/09/05 11:01:46;;;;;;;;;;;;;;;24.00;100.00;99540.34;5082291;28;19930;-62
2021/09/05 11:04:11;;;;;;;;;;;;;;;26.52;100.00;99537.59;5080552;28;20019;-62
2021/09/05 11:06:47;;;;;;;;;;;;;;;25.86;100.00;99536.34;5080051;28;20599;-62
2021/09/05 11:09:22;;;;;;;;;;;;;;;26.03;100.00;99542.00;5085773;28;19919;-62
2021/09/05 11:11:55;;;;;;;;;;;;;;;26.10;100.00;99537.84;5083430;28;19955;-62
2021/09/05 11:14:46;;;;;;;;;;;;;;;26.02;94.96;99545.59;5082402;28;20008;-63
2021/09/05 11:17:11;;;;;;;;;;;;;;;24.93;100.00;99542.50;5100960;28;20010;-62
2021/09/05 11:19:42;;;;;;;;;;;;;;;26.12;100.00;99541.19;5088255;28;20006;-62
2021/09/05 11:22:07;;;;;;;;;;;;;;;27.50;96.73;99539.19;5071058;28;19923;-63
2021/09/05 11:24:33;;;;;;;;;;;;;;;26.78;95.50;99545.88;5078652;28;19916;-62
2021/09/05 11:27:03;;;;;;;;;;;;;;;26.25;95.81;99547.03;5083025;28;19922;-61
2021/09/05 11:29:33;;;;;;;;;;;;;;;25.81;100.00;99533.25;5080372;28;19920;-62
2021/09/05 11:32:19;;;;;;;;;;;;;;;25.03;100.00;99539.91;5065158;28;19950;-61
2021/09/05 11:34:52;;;;;;;;;;;;;;;27.85;96.87;99535.06;5062494;28;19951;-61
2021/09/05 11:37:34;;;;;;;;;;;;;;;28.13;100.00;99535.06;5097900;28;20006;-61
2021/09/05 11:40:19;;;;;;;;;;;;;;;26.31;95.80;99534.25;5098379;28;19915;-60
2021/09/05 11:42:46;;;;;;;;;;;;;;;26.17;96.44;99536.31;5082879;28;19920;-60
2021/09/05 11:45:12;;;;;;;;;;;;;;;26.21;89.13;99537.72;5084740;28;19916;-60
2021/09/05 11:47:38;;;;;;;;;;;;;;;26.84;91.96;99536.53;5069405;28;19948;-61
2021/09/05 11:50:04;;;;;;;;;;;;;;;27.86;98.39;99538.53;5076860;28;19919;-63
2021/09/05 11:52:32;;;;;;;;;;;;;;;29.11;94.23;99527.22;5082249;28;19920;-63
2021/09/05 11:55:01;;;;;;;;;;;;;;;29.29;85.19;99532.47;5085072;28;19920;-61
2021/09/05 11:57:28;;;;;;;;;;;;;;;29.59;100.00;99524.00;5063227;28;20441;-61
2021/09/05 11:59:54;;;;;;;;;;;;;;;28.24;86.26;99529.53;5081212;28;19915;-62
2021/09/05 12:02:31;;;;;;;;;;;;;;;29.50;84.74;99530.25;5098601;28;19916;-62
2021/09/05 12:04:57;;;;;;;;;;;;;;;28.15;88.53;99527.78;5095502;28;19912;-62
2021/09/05 12:07:22;;;;;;;;;;;;;;;26.25;88.59;99533.84;5083784;28;19964;-62
2021/09/05 12:09:47;;;;;;;;;;;;;;;29.52;92.90;99530.94;5086533;28;19990;-62
2021/09/05 12:12:14;;;;;;;;;;;;;;;30.30;90.24;99529.94;5104370;28;19912;-61
2021/09/05 12:14:40;;;;;;;;;;;;;;;28.26;83.12;99530.22;5071230;28;20266;-62
2021/09/05 12:17:18;;;;;;;;;;;;;;;27.59;85.94;99528.75;5061355;28;19919;-61
2021/09/05 12:19:53;;;;;;;;;;;;;;;28.85;87.95;99529.78;5078347;28;19918;-62
2021/09/05 12:22:18;;;;;;;;;;;;;;;28.61;74.02;99528.59;5081497;28;20318;-62
2021/09/05 12:24:52;;;;;;;;;;;;;;;29.97;72.40;99527.16;5078104;28;19912;-62
2021/09/05 12:27:18;;;;;;;;;;;;;;;28.22;76.50;99528.84;5101128;28;20006;-62
2021/09/05 12:29:46;;;;;;;;;;;;;;;28.61;77.60;99528.59;5061154;28;20448;-62
2021/09/05 12:32:16;;;;;;;;;;;;;;;29.67;92.09;99527.66;5068922;28;21503;-63
2021/09/05 12:34:45;;;;;;;;;;;;;;;30.51;68.85;99525.97;5068852;28;20348;-63